This is the latest recevied weather packets stored in our database for station/object KC3VCX. If no packets are shown the sender has not sent any weather packets the latest 10 day(s).
| Time | Temp. | Humidity | Pressure | Rain* | Wind** | Luminosity | Snow |
|---|---|---|---|---|---|---|---|
| 1777723992 | 2.78° C | 95% | 1017.7 hPa | 0 mm | - | 151 W/m² | - |
| 1777723689 | 2.22° C | 95% | 1017.8 hPa | 0 mm | - | 111 W/m² | - |
| 1777723385 | 2.78° C | 95% | 1017.7 hPa | 0 mm | - | 168 W/m² | - |
| 1777723083 | 2.22° C | 95% | 1017.7 hPa | 0 mm | - | 148 W/m² | - |
| 1777722780 | 2.22° C | 95% | 1017.4 hPa | 0 mm | - | 100 W/m² | - |
| 1777722476 | 1.67° C | 95% | 1017.7 hPa | 0 mm | - | 74 W/m² | - |
| 1777722173 | 1.67° C | 95% | 1017.9 hPa | 0 mm | - | 108 W/m² | - |
| 1777721870 | 1.67° C | 95% | 1017.9 hPa | 0 mm | - | 88 W/m² | - |
| 1777721568 | 1.67° C | 95% | 1018.1 hPa | 0 mm | - | 66 W/m² | - |
| 1777721266 | 1.67° C | 95% | 1017.9 hPa | 0 mm | - | 68 W/m² | - |
| 1777720963 | 1.67° C | 95% | 1017.9 hPa | 0 mm | - | 59 W/m² | - |
| 1777720660 | 1.67° C | 95% | 1017.8 hPa | 0 mm | - | 39 W/m² | - |
| 1777720357 | 1.11° C | 95% | 1017.8 hPa | 0 mm | - | 30 W/m² | - |
| 1777720055 | 1.11° C | 95% | 1017.8 hPa | 0 mm | - | 19 W/m² | - |
| 1777719752 | 1.11° C | 95% | 1018 hPa | 0 mm | - | 14 W/m² | - |
| 1777719450 | 1.11° C | 95% | 1017.8 hPa | 0 mm | - | 11 W/m² | - |
| 1777719146 | 1.11° C | 95% | 1017.8 hPa | 0 mm | - | 9 W/m² | - |
| 1777718844 | 1.11° C | 95% | 1017.7 hPa | 0 mm | - | 7 W/m² | - |
| 1777718542 | 1.11° C | 95% | 1017.8 hPa | 0 mm | - | 5 W/m² | - |
| 1777718239 | 1.11° C | 95% | 1018.1 hPa | 0 mm | - | 4 W/m² | - |
| 1777717937 | 1.11° C | 95% | 1017.9 hPa | 0 mm | - | 3 W/m² | - |
| 1777717633 | 1.11° C | 95% | 1017.9 hPa | 0 mm | - | 3 W/m² | - |
| 1777717330 | 1.11° C | 95% | 1017.9 hPa | 0 mm | - | 2 W/m² | - |
| 1777717028 | 0.56° C | 95% | 1018 hPa | 0 mm | - | 1 W/m² | - |
| 1777716726 | 0.56° C | 95% | 1017.7 hPa | 0 mm | - | 1 W/m² | - |
* Rain latest hour (hover to see other rain measurements)
** Current wind speed in m/s (hover to see current wind gust speed)